Flight Track Log - Related Links

Times and Time Zones

All times are in EDT time to prevent confusion due to time zone crossing. See the CCI174 flight status page for this flight to view local times or setup timezone preferences in your user account.

Time Position Orientation Groundspeed Altitude Reporting Facility
EDT Latitude Longitude Course Direction KTS MPH feet Rate Location/Type
Fri 10:47:46 PM 35.0236 -89.9719 180° South 154 177 1,000  Level FAA TRACON SMA TRACON (SMA)
Fri 10:48:25 PM 34.9969 -89.9717 144° Southeast 157 181 2,200 1,823 Climbing FAA TRACON SMA TRACON (SMA)
Fri 10:49:05 PM 34.9686 -89.9469 114° Southeast 201 231 3,400 2,025 Climbing FAA TRACON SMA TRACON (SMA)
Fri 10:49:45 PM 34.9497 -89.8961 77° East 249 287 4,900 2,519 Climbing FAA TRACON SMA TRACON (SMA)
Fri 10:50:26 PM 34.9617 -89.8347 26° Northeast 280 322 6,800 2,700 Climbing FAA TRACON SMA TRACON (SMA)
Fri 10:51:05 PM 35.0047 -89.8092 359° North 289 333 8,500 2,582 Climbing FAA TRACON SMA TRACON (SMA)
Fri 10:51:45 PM 35.0597 -89.8106 360° North 287 330 10,200 1,800 Climbing FAA TRACON SMA TRACON (SMA)
Fri 10:52:25 PM 35.1228 -89.8103 North 331 381 10,900 1,500 Climbing FAA TRACON SMA TRACON (SMA)
Fri 10:53:05 PM 35.1925 -89.8031 North 364 419 12,200 2,074 Climbing FAA TRACON SMA TRACON (SMA)
Fri 10:53:46 PM 35.2656 -89.7914 29° Northeast 382 440 13,700 2,074 Climbing FAA TRACON SMA TRACON (SMA)
Fri 10:54:26 PM 35.3256 -89.7508 43° Northeast 403 464 15,000 2,475 Climbing FAA TRACON SMA TRACON (SMA)
Fri 10:55:06 PM 35.3828 -89.6850 44° Northeast 409 471 17,000 2,354 Climbing FAA TRACON SMA TRACON (SMA)
Fri 10:55:45 PM 35.4400 -89.6164 45° Northeast 413 475 18,100 1,650 Climbing FAA TRACON SMA TRACON (SMA)
Fri 10:56:26 PM 35.4922 -89.5517 44° Northeast 427 491 19,200 2,000 Climbing FAA TRACON SMA TRACON (SMA)
Fri 10:57:06 PM 35.5539 -89.4786 44° Northeast 440 506 20,800 2,051 Climbing FAA TRACON SMA TRACON (SMA)
Fri 10:57:45 PM 35.6078 -89.4136 45° Northeast 441 507 21,900 1,747 Climbing FAA TRACON SMA TRACON (SMA)
Fri 10:58:25 PM 35.6700 -89.3381 44° Northeast 449 517 23,100 1,500 Climbing FAA TRACON SMA TRACON (SMA)
Fri 10:59:05 PM 35.7128 -89.2867 45° Northeast 454 522 23,900 1,232 Climbing FAA TRACON SMA TRACON (SMA)
Fri 11:00:17 PM 35.8397 -89.1306 44° Northeast 442 509 25,400 1,273 Climbing Memphis Center
Fri 11:01:17 PM 35.9386 -89.0111 44° Northeast 468 539 26,700 1,300 Climbing Memphis Center
Fri 11:02:17 PM 36.0394 -88.8914 45° Northeast 487 560 28,000 1,250 Climbing Memphis Center
Fri 11:03:17 PM 36.1381 -88.7686 44° Northeast 492 566 29,200 1,250 Climbing Memphis Center
Fri 11:04:17 PM 36.2406 -88.6458 44° Northeast 503 579 30,500 900 Climbing Memphis Center
Fri 11:05:17 PM 36.3389 -88.5278 45° Northeast 496 571 31,000 250 Climbing Memphis Center
Fri 11:06:17 PM 36.4372 -88.4069 44° Northeast 496 571 31,000  Level Memphis Center
Fri 11:07:17 PM 36.5353 -88.2883 45° Northeast 496 571 31,000  Level Memphis Center
Fri 11:08:17 PM 36.6311 -88.1669 45° Northeast 490 564 31,000  Level Memphis Center
Fri 11:09:17 PM 36.7250 -88.0506 45° Northeast 485 558 31,000  Level Memphis Center
Fri 11:10:17 PM 36.8225 -87.9283 45° Northeast 480 552 31,000 -207 Level Memphis Center
Fri 11:12:11 PM 37.0017 -87.7050 45° Northeast 478 550 30,400 -483 Descending Indianapolis Center
Fri 11:13:11 PM 37.0956 -87.5853 45° Northeast 478 550 29,600 -650 Descending Indianapolis Center
Fri 11:14:11 PM 37.1892 -87.4678 45° Northeast 473 544 29,100 -300 Descending Indianapolis Center
Fri 11:15:11 PM 37.2894 -87.3425 46° Northeast 473 544 29,000 -50 Descending Indianapolis Center
Fri 11:16:11 PM 37.3786 -87.2267 56° Northeast 465 535 29,000  Level Indianapolis Center
Fri 11:17:11 PM 37.4539 -87.0864 88° East 465 535 29,000  Level Indianapolis Center
Fri 11:18:11 PM 37.4589 -86.9139 91° East 457 526 29,000  Level Indianapolis Center
Fri 11:19:11 PM 37.4553 -86.7436 88° East 483 556 29,000  Level Indianapolis Center
Fri 11:20:11 PM 37.4597 -86.5739 74° East 489 563 29,000  Level Indianapolis Center
Fri 11:21:11 PM 37.4950 -86.4183 52° Northeast 474 545 29,000  Level Indianapolis Center
Fri 11:22:11 PM 37.5772 -86.2878 66° East 452 520 29,000  Level Indianapolis Center
Fri 11:23:11 PM 37.6286 -86.1400 63° Northeast 461 531 29,000  Level Indianapolis Center
Fri 11:24:11 PM 37.6858 -85.9953 65° Northeast 456 525 29,000 -50 Level Indianapolis Center
Fri 11:25:11 PM 37.7411 -85.8472 67° East 456 525 28,900 -450 Descending Indianapolis Center
Fri 11:26:11 PM 37.7942 -85.6911 66° East 461 531 28,100 -650 Descending Indianapolis Center
Fri 11:27:11 PM 37.8403 -85.5611 62° Northeast 466 536 27,600 -650 Descending Indianapolis Center
Fri 11:28:11 PM 37.8989 -85.4231 68° East 447 514 26,800 -1,000 Descending Indianapolis Center
Fri 11:29:11 PM 37.9428 -85.2819 65° Northeast 435 501 25,600 -1,200 Descending Indianapolis Center
Fri 11:30:11 PM 37.9992 -85.1253 65° Northeast 435 501 24,400 -950 Descending Indianapolis Center
Fri 11:31:11 PM 38.0489 -84.9917 64° Northeast 424 488 23,700 -1,050 Descending Indianapolis Center
Fri 11:32:11 PM 38.1003 -84.8581 68° East 413 475 22,300 -1,450 Descending Indianapolis Center
Fri 11:33:11 PM 38.1436 -84.7217 67° East 420 483 20,800 -1,400 Descending Indianapolis Center
Fri 11:34:11 PM 38.1886 -84.5875 66° East 420 483 19,500 -1,600 Descending Indianapolis Center
Fri 11:35:11 PM 38.2333 -84.4586 69° East 404 465 17,600 -2,200 Descending Indianapolis Center
Fri 11:36:11 PM 38.2719 -84.3294 56° Northeast 394 453 15,100 -1,765 Descending Indianapolis Center
Fri 11:37:10 PM 38.3311 -84.2161 20° North 379 436 14,100 -1,250 Descending Indianapolis Center
Fri 11:38:11 PM 38.4167 -84.1772 10° North 338 389 12,600 -1,350 Descending Indianapolis Center
Fri 11:39:10 PM 38.5106 -84.1569 10° North 321 369 11,400 -800 Descending Indianapolis Center
Fri 11:40:11 PM 38.6025 -84.1364 15° North 339 390 11,000 -250 Descending Indianapolis Center
Fri 11:41:10 PM 38.6839 -84.1078 12° North 333 383 10,900 -50 Descending Indianapolis Center
Fri 11:42:11 PM 38.7717 -84.0844 352° North 326 375 10,900  Level Indianapolis Center
Fri 11:43:11 PM 38.8614 -84.1011 327° Northwest 326 375 10,900 -403 Level Indianapolis Center
Fri 11:44:10 PM 38.9278 -84.1575 318° Northwest 289 333 10,100 -1,250 Descending Indianapolis Center
Fri 11:45:11 PM 38.9817 -84.2194 325° Northwest 272 313 8,400 -1,537 Descending Indianapolis Center
Fri 11:46:11 PM 39.0419 -84.2736 305° West 261 300 7,000 -750 Descending Indianapolis Center
Fri 11:47:11 PM 39.0850 -84.3542 293° West 261 300 6,900 -50 Descending Indianapolis Center
Fri 11:48:11 PM 39.1136 -84.4403 296° West 256 295 6,900 -252 Level Indianapolis Center
Fri 11:49:10 PM 39.1442 -84.5208 281° West 261 300 6,400 -1,425 Descending Indianapolis Center
Fri 11:51:12 PM 39.1667 -84.6667 195° South 205 236 2,600 -1,436 Descending Cincinnati TRACON
Fri 11:52:18 PM 39.1167 -84.6833 163° South 156 180 1,900 -636 Descending Cincinnati TRACON
Fri 11:59:32 PM 38.3579 -84.3828 163° South  Level FlightAware Approximate

Login

Don't have an account? Register now (free) for customized features, flight alerts, and more!